Etusivu
METAR-TAF:

METAR-TAF

Lentoasemat :

Marsa Alam, Egypti

Leveyspiiri: 25-33-25N, Pituuspiiri: 34-35-01E, korkeus merenpinnasta: 77 m

Tämänhetkinen sää

Tämä raportti tehtiin 1 tunti ja 10 minuuttia sitten, kello 22.00 UTC
Tuuli 10 kn lännestä/luoteesta
Lämpötila 35°C
Kosteus 22%
Ilmanpaine 1005 hPa
Näkyvyys 10 km tai enemmän
ei pilviä alle 1500 m:ssä eikä cumulonimbus-pilviä

METAR: HEMA 132200Z 30010KT CAVOK 35/10 Q1005 NOSIG

Aika: 01:10 (23:10 UTC)

Sääennuste

Tämä raportti tehtiin 6 tuntia ja 10 minuuttia sitten, kello 17.00 UTC
Ennuste voimassa 13. päivästä klo 18 UTC - 14. päivään klo 24 UTC
Tuuli 12 kn luoteesta
Näkyvyys 10 km tai enemmän
ei pilviä alle 1500 m:ssä eikä cumulonimbus-pilviä

TAF: HEMA 131700Z 1318/1424 32012KT CAVOK

Säähavainnot ja -ennusteet yli 4000 lentoasemalta (METAR- ja TAF-raportit).

Käytössä olevat sääasemat on merkitty karttaan keltaisilla ja punaisilla pisteillä.

Aseta hiiri pisteen päälle nähdäksesi sääaseman nimen.

Klikkaa sitten nähdäksesi säähavainnot ja -ennusteet.

Kartan vaihtaminen: klikkaa mustalla rastilla varustettuja vihreitä pisteitä, niin voit zoomata sisään; viivalla varustettua vihreää pistettä, niin voit zoomata ulos tai vihreitä nuolia, niin pääset viereisille kartoille.


METAR-TAF: